<?xml version="1.0" encoding="UTF-8" standalone="no" ?>
<gpx xmlns="http://www.topografix.com/GPX/1/1" xmlns:xsi="http://www.w3.org/2001/XMLSchema-instance" xsi:schemaLocation="http://www.topografix.com/GPX/1/1 http://www.topografix.com/GPX/1/1/gpx.xsd" version="1.1" creator="VisuGPX - https://www.visugpx.com">
  <metadata>
    <name>TPS 2017: la trace!</name>
    <desc><![CDATA[La traversée des pyrénées à ski édition 2017. Trace étape par étape (jour par jour).]]></desc>
  </metadata>
  <trk>
    <name><![CDATA[R7-02a]]></name>
    <trkseg>
      <trkpt lat="42.82002" lon="-0.19462">
        <ele>1872.3</ele>
        <time>2017-03-20T12:22:09Z</time>
      </trkpt>
      <trkpt lat="42.81996" lon="-0.19487">
        <ele>1882.4</ele>
        <time>2017-03-21T06:18:40Z</time>
      </trkpt>
      <trkpt lat="42.81995" lon="-0.19487">
        <ele>1883.4</ele>
        <time>2017-03-21T06:18:41Z</time>
      </trkpt>
      <trkpt lat="42.81989" lon="-0.19501">
        <ele>1881.9</ele>
        <time>2017-03-21T06:18:48Z</time>
      </trkpt>
      <trkpt lat="42.81982" lon="-0.19507">
        <ele>1880.5</ele>
        <time>2017-03-21T06:19:04Z</time>
      </trkpt>
      <trkpt lat="42.81993" lon="-0.19505">
        <ele>1879.5</ele>
        <time>2017-03-21T06:19:21Z</time>
      </trkpt>
      <trkpt lat="42.81993" lon="-0.19503">
        <ele>1876.6</ele>
        <time>2017-03-21T06:19:24Z</time>
      </trkpt>
      <trkpt lat="42.81993" lon="-0.19504">
        <ele>1872.8</ele>
        <time>2017-03-21T06:19:28Z</time>
      </trkpt>
      <trkpt lat="42.81993" lon="-0.19503">
        <ele>1868.9</ele>
        <time>2017-03-21T06:19:33Z</time>
      </trkpt>
      <trkpt lat="42.81994" lon="-0.19504">
        <ele>1866.5</ele>
        <time>2017-03-21T06:19:40Z</time>
      </trkpt>
      <trkpt lat="42.81993" lon="-0.19503">
        <ele>1865.1</ele>
        <time>2017-03-21T06:19:42Z</time>
      </trkpt>
      <trkpt lat="42.81992" lon="-0.19504">
        <ele>1861.7</ele>
        <time>2017-03-21T06:19:51Z</time>
      </trkpt>
      <trkpt lat="42.81992" lon="-0.19505">
        <ele>1859.3</ele>
        <time>2017-03-21T06:20:12Z</time>
      </trkpt>
      <trkpt lat="42.81988" lon="-0.19503">
        <ele>1859.8</ele>
        <time>2017-03-21T06:20:46Z</time>
      </trkpt>
      <trkpt lat="42.81989" lon="-0.19504">
        <ele>1859.8</ele>
        <time>2017-03-21T06:21:13Z</time>
      </trkpt>
      <trkpt lat="42.81967" lon="-0.19552">
        <ele>1854</ele>
        <time>2017-03-21T06:21:56Z</time>
      </trkpt>
      <trkpt lat="42.81901" lon="-0.19626">
        <ele>1857.4</ele>
        <time>2017-03-21T06:23:03Z</time>
      </trkpt>
      <trkpt lat="42.8189" lon="-0.19611">
        <ele>1855</ele>
        <time>2017-03-21T06:23:32Z</time>
      </trkpt>
      <trkpt lat="42.81884" lon="-0.19609">
        <ele>1856</ele>
        <time>2017-03-21T06:23:53Z</time>
      </trkpt>
      <trkpt lat="42.81855" lon="-0.1967">
        <ele>1857.9</ele>
        <time>2017-03-21T06:24:38Z</time>
      </trkpt>
      <trkpt lat="42.81865" lon="-0.19713">
        <ele>1860.3</ele>
        <time>2017-03-21T06:25:12Z</time>
      </trkpt>
      <trkpt lat="42.81792" lon="-0.20026">
        <ele>1889.1</ele>
        <time>2017-03-21T06:30:55Z</time>
      </trkpt>
      <trkpt lat="42.81807" lon="-0.2005">
        <ele>1894.4</ele>
        <time>2017-03-21T06:31:37Z</time>
      </trkpt>
      <trkpt lat="42.81802" lon="-0.20056">
        <ele>1895.9</ele>
        <time>2017-03-21T06:31:51Z</time>
      </trkpt>
      <trkpt lat="42.81805" lon="-0.20059">
        <ele>1897.3</ele>
        <time>2017-03-21T06:32:12Z</time>
      </trkpt>
      <trkpt lat="42.81803" lon="-0.20059">
        <ele>1892.5</ele>
        <time>2017-03-21T06:32:24Z</time>
      </trkpt>
      <trkpt lat="42.81804" lon="-0.20058">
        <ele>1899.2</ele>
        <time>2017-03-21T06:32:25Z</time>
      </trkpt>
      <trkpt lat="42.81802" lon="-0.20057">
        <ele>1895.4</ele>
        <time>2017-03-21T06:32:43Z</time>
      </trkpt>
      <trkpt lat="42.81803" lon="-0.20059">
        <ele>1900.2</ele>
        <time>2017-03-21T06:32:46Z</time>
      </trkpt>
      <trkpt lat="42.81803" lon="-0.20058">
        <ele>1896.8</ele>
        <time>2017-03-21T06:32:50Z</time>
      </trkpt>
      <trkpt lat="42.81806" lon="-0.20057">
        <ele>1895.4</ele>
        <time>2017-03-21T06:33:04Z</time>
      </trkpt>
      <trkpt lat="42.81803" lon="-0.20056">
        <ele>1896.8</ele>
        <time>2017-03-21T06:33:27Z</time>
      </trkpt>
      <trkpt lat="42.81801" lon="-0.20056">
        <ele>1897.8</ele>
        <time>2017-03-21T06:33:43Z</time>
      </trkpt>
      <trkpt lat="42.81797" lon="-0.20059">
        <ele>1898.3</ele>
        <time>2017-03-21T06:34:10Z</time>
      </trkpt>
      <trkpt lat="42.81757" lon="-0.20164">
        <ele>1915.1</ele>
        <time>2017-03-21T06:36:14Z</time>
      </trkpt>
      <trkpt lat="42.81641" lon="-0.20278">
        <ele>1929.5</ele>
        <time>2017-03-21T06:39:12Z</time>
      </trkpt>
      <trkpt lat="42.81639" lon="-0.20281">
        <ele>1930</ele>
        <time>2017-03-21T06:39:17Z</time>
      </trkpt>
      <trkpt lat="42.81631" lon="-0.20468">
        <ele>1945.4</ele>
        <time>2017-03-21T06:42:57Z</time>
      </trkpt>
      <trkpt lat="42.8165" lon="-0.20488">
        <ele>1948.3</ele>
        <time>2017-03-21T06:43:39Z</time>
      </trkpt>
      <trkpt lat="42.81649" lon="-0.20497">
        <ele>1949.2</ele>
        <time>2017-03-21T06:43:49Z</time>
      </trkpt>
      <trkpt lat="42.81692" lon="-0.20504">
        <ele>1957.4</ele>
        <time>2017-03-21T06:45:10Z</time>
      </trkpt>
      <trkpt lat="42.81691" lon="-0.20504">
        <ele>1956.9</ele>
        <time>2017-03-21T06:45:38Z</time>
      </trkpt>
      <trkpt lat="42.8169" lon="-0.20504">
        <ele>1957.4</ele>
        <time>2017-03-21T06:45:52Z</time>
      </trkpt>
      <trkpt lat="42.8169" lon="-0.20507">
        <ele>1957.4</ele>
        <time>2017-03-21T06:46:08Z</time>
      </trkpt>
      <trkpt lat="42.81693" lon="-0.20505">
        <ele>1958.3</ele>
        <time>2017-03-21T06:46:34Z</time>
      </trkpt>
      <trkpt lat="42.8169" lon="-0.20506">
        <ele>1957.9</ele>
        <time>2017-03-21T06:47:02Z</time>
      </trkpt>
      <trkpt lat="42.8169" lon="-0.20509">
        <ele>1958.8</ele>
        <time>2017-03-21T06:47:42Z</time>
      </trkpt>
      <trkpt lat="42.81698" lon="-0.20507">
        <ele>1959.8</ele>
        <time>2017-03-21T06:47:58Z</time>
      </trkpt>
      <trkpt lat="42.81748" lon="-0.20518">
        <ele>1973.2</ele>
        <time>2017-03-21T06:50:09Z</time>
      </trkpt>
      <trkpt lat="42.81753" lon="-0.20521">
        <ele>1975.2</ele>
        <time>2017-03-21T06:50:25Z</time>
      </trkpt>
      <trkpt lat="42.81764" lon="-0.20519">
        <ele>1978.1</ele>
        <time>2017-03-21T06:50:59Z</time>
      </trkpt>
      <trkpt lat="42.81764" lon="-0.20521">
        <ele>1978.5</ele>
        <time>2017-03-21T06:51:15Z</time>
      </trkpt>
      <trkpt lat="42.81759" lon="-0.20524">
        <ele>1979.5</ele>
        <time>2017-03-21T06:51:27Z</time>
      </trkpt>
      <trkpt lat="42.81739" lon="-0.20555">
        <ele>1986.7</ele>
        <time>2017-03-21T06:52:30Z</time>
      </trkpt>
      <trkpt lat="42.81732" lon="-0.2056">
        <ele>1987.2</ele>
        <time>2017-03-21T06:52:45Z</time>
      </trkpt>
      <trkpt lat="42.81726" lon="-0.20571">
        <ele>1990.6</ele>
        <time>2017-03-21T06:53:07Z</time>
      </trkpt>
      <trkpt lat="42.81705" lon="-0.20594">
        <ele>1997.8</ele>
        <time>2017-03-21T06:54:05Z</time>
      </trkpt>
      <trkpt lat="42.81698" lon="-0.20596">
        <ele>1999.7</ele>
        <time>2017-03-21T06:54:22Z</time>
      </trkpt>
      <trkpt lat="42.81694" lon="-0.20602">
        <ele>2001.1</ele>
        <time>2017-03-21T06:54:36Z</time>
      </trkpt>
      <trkpt lat="42.81698" lon="-0.20619">
        <ele>2005.5</ele>
        <time>2017-03-21T06:55:11Z</time>
      </trkpt>
      <trkpt lat="42.81681" lon="-0.20639">
        <ele>2010.7</ele>
        <time>2017-03-21T06:55:57Z</time>
      </trkpt>
      <trkpt lat="42.81681" lon="-0.20645">
        <ele>2013.1</ele>
        <time>2017-03-21T06:56:12Z</time>
      </trkpt>
      <trkpt lat="42.81687" lon="-0.20652">
        <ele>2015.1</ele>
        <time>2017-03-21T06:56:27Z</time>
      </trkpt>
      <trkpt lat="42.81694" lon="-0.20655">
        <ele>2017</ele>
        <time>2017-03-21T06:56:44Z</time>
      </trkpt>
      <trkpt lat="42.8171" lon="-0.20657">
        <ele>2020.8</ele>
        <time>2017-03-21T06:57:19Z</time>
      </trkpt>
      <trkpt lat="42.81709" lon="-0.20657">
        <ele>2021.3</ele>
        <time>2017-03-21T06:57:38Z</time>
      </trkpt>
      <trkpt lat="42.81677" lon="-0.20711">
        <ele>2035.7</ele>
        <time>2017-03-21T06:59:35Z</time>
      </trkpt>
      <trkpt lat="42.81678" lon="-0.20714">
        <ele>2039.1</ele>
        <time>2017-03-21T06:59:50Z</time>
      </trkpt>
      <trkpt lat="42.81658" lon="-0.20746">
        <ele>2046.8</ele>
        <time>2017-03-21T07:01:00Z</time>
      </trkpt>
      <trkpt lat="42.81659" lon="-0.20753">
        <ele>2049.2</ele>
        <time>2017-03-21T07:01:14Z</time>
      </trkpt>
      <trkpt lat="42.81662" lon="-0.20761">
        <ele>2050.6</ele>
        <time>2017-03-21T07:01:29Z</time>
      </trkpt>
      <trkpt lat="42.81639" lon="-0.20843">
        <ele>2066.5</ele>
        <time>2017-03-21T07:03:52Z</time>
      </trkpt>
      <trkpt lat="42.81639" lon="-0.20846">
        <ele>2067</ele>
        <time>2017-03-21T07:04:14Z</time>
      </trkpt>
      <trkpt lat="42.81645" lon="-0.20852">
        <ele>2069.9</ele>
        <time>2017-03-21T07:04:31Z</time>
      </trkpt>
      <trkpt lat="42.81685" lon="-0.20838">
        <ele>2083.8</ele>
        <time>2017-03-21T07:06:19Z</time>
      </trkpt>
      <trkpt lat="42.81687" lon="-0.20835">
        <ele>2085.7</ele>
        <time>2017-03-21T07:06:37Z</time>
      </trkpt>
      <trkpt lat="42.81663" lon="-0.21025">
        <ele>2137.6</ele>
        <time>2017-03-21T07:13:56Z</time>
      </trkpt>
      <trkpt lat="42.81665" lon="-0.21026">
        <ele>2137.2</ele>
        <time>2017-03-21T07:14:34Z</time>
      </trkpt>
      <trkpt lat="42.81663" lon="-0.21027">
        <ele>2138.1</ele>
        <time>2017-03-21T07:15:00Z</time>
      </trkpt>
      <trkpt lat="42.81655" lon="-0.21069">
        <ele>2147.2</ele>
        <time>2017-03-21T07:16:17Z</time>
      </trkpt>
      <trkpt lat="42.81651" lon="-0.21074">
        <ele>2150.1</ele>
        <time>2017-03-21T07:16:28Z</time>
      </trkpt>
      <trkpt lat="42.81646" lon="-0.21077">
        <ele>2149.7</ele>
        <time>2017-03-21T07:17:05Z</time>
      </trkpt>
      <trkpt lat="42.81649" lon="-0.21076">
        <ele>2149.7</ele>
        <time>2017-03-21T07:17:23Z</time>
      </trkpt>
      <trkpt lat="42.81651" lon="-0.21077">
        <ele>2149.7</ele>
        <time>2017-03-21T07:18:04Z</time>
      </trkpt>
      <trkpt lat="42.81652" lon="-0.21076">
        <ele>2150.6</ele>
        <time>2017-03-21T07:18:16Z</time>
      </trkpt>
      <trkpt lat="42.8165" lon="-0.21075">
        <ele>2150.6</ele>
        <time>2017-03-21T07:18:59Z</time>
      </trkpt>
      <trkpt lat="42.81651" lon="-0.21075">
        <ele>2150.6</ele>
        <time>2017-03-21T07:19:38Z</time>
      </trkpt>
      <trkpt lat="42.8165" lon="-0.21078">
        <ele>2150.1</ele>
        <time>2017-03-21T07:20:17Z</time>
      </trkpt>
      <trkpt lat="42.81651" lon="-0.21076">
        <ele>2153</ele>
        <time>2017-03-21T07:21:25Z</time>
      </trkpt>
      <trkpt lat="42.81651" lon="-0.21077">
        <ele>2150.1</ele>
        <time>2017-03-21T07:21:29Z</time>
      </trkpt>
      <trkpt lat="42.8165" lon="-0.21079">
        <ele>2150.6</ele>
        <time>2017-03-21T07:22:14Z</time>
      </trkpt>
      <trkpt lat="42.81651" lon="-0.21079">
        <ele>2151.1</ele>
        <time>2017-03-21T07:22:21Z</time>
      </trkpt>
      <trkpt lat="42.81652" lon="-0.2108">
        <ele>2149.2</ele>
        <time>2017-03-21T07:22:29Z</time>
      </trkpt>
      <trkpt lat="42.81651" lon="-0.2108">
        <ele>2146.3</ele>
        <time>2017-03-21T07:22:31Z</time>
      </trkpt>
      <trkpt lat="42.81651" lon="-0.21078">
        <ele>2150.6</ele>
        <time>2017-03-21T07:22:48Z</time>
      </trkpt>
      <trkpt lat="42.81651" lon="-0.21078">
        <ele>2151.1</ele>
        <time>2017-03-21T07:23:03Z</time>
      </trkpt>
      <trkpt lat="42.81651" lon="-0.21077">
        <ele>2151.1</ele>
        <time>2017-03-21T07:23:35Z</time>
      </trkpt>
      <trkpt lat="42.81651" lon="-0.21078">
        <ele>2151.6</ele>
        <time>2017-03-21T07:24:05Z</time>
      </trkpt>
      <trkpt lat="42.81652" lon="-0.2108">
        <ele>2152.1</ele>
        <time>2017-03-21T07:24:26Z</time>
      </trkpt>
      <trkpt lat="42.81668" lon="-0.21096">
        <ele>2157.8</ele>
        <time>2017-03-21T07:25:14Z</time>
      </trkpt>
      <trkpt lat="42.81683" lon="-0.2109">
        <ele>2161.7</ele>
        <time>2017-03-21T07:26:02Z</time>
      </trkpt>
      <trkpt lat="42.81674" lon="-0.21128">
        <ele>2169.8</ele>
        <time>2017-03-21T07:27:07Z</time>
      </trkpt>
      <trkpt lat="42.81666" lon="-0.21136">
        <ele>2173.7</ele>
        <time>2017-03-21T07:27:37Z</time>
      </trkpt>
      <trkpt lat="42.81678" lon="-0.21149">
        <ele>2177.5</ele>
        <time>2017-03-21T07:28:10Z</time>
      </trkpt>
      <trkpt lat="42.81685" lon="-0.2115">
        <ele>2179.9</ele>
        <time>2017-03-21T07:28:28Z</time>
      </trkpt>
      <trkpt lat="42.8169" lon="-0.21149">
        <ele>2181.4</ele>
        <time>2017-03-21T07:28:42Z</time>
      </trkpt>
      <trkpt lat="42.81694" lon="-0.21207">
        <ele>2194.8</ele>
        <time>2017-03-21T07:30:25Z</time>
      </trkpt>
      <trkpt lat="42.81684" lon="-0.2123">
        <ele>2201.1</ele>
        <time>2017-03-21T07:31:12Z</time>
      </trkpt>
      <trkpt lat="42.81672" lon="-0.21242">
        <ele>2204.9</ele>
        <time>2017-03-21T07:32:24Z</time>
      </trkpt>
      <trkpt lat="42.81629" lon="-0.21364">
        <ele>2225.6</ele>
        <time>2017-03-21T07:35:16Z</time>
      </trkpt>
      <trkpt lat="42.81625" lon="-0.21369">
        <ele>2227.5</ele>
        <time>2017-03-21T07:35:29Z</time>
      </trkpt>
      <trkpt lat="42.81613" lon="-0.21376">
        <ele>2231.4</ele>
        <time>2017-03-21T07:35:59Z</time>
      </trkpt>
      <trkpt lat="42.81614" lon="-0.2139">
        <ele>2235.7</ele>
        <time>2017-03-21T07:36:28Z</time>
      </trkpt>
      <trkpt lat="42.816" lon="-0.2139">
        <ele>2239.1</ele>
        <time>2017-03-21T07:37:01Z</time>
      </trkpt>
      <trkpt lat="42.81594" lon="-0.21388">
        <ele>2241.5</ele>
        <time>2017-03-21T07:37:18Z</time>
      </trkpt>
      <trkpt lat="42.81589" lon="-0.21388">
        <ele>2243.4</ele>
        <time>2017-03-21T07:37:33Z</time>
      </trkpt>
      <trkpt lat="42.81585" lon="-0.2139">
        <ele>2244.8</ele>
        <time>2017-03-21T07:37:48Z</time>
      </trkpt>
      <trkpt lat="42.8158" lon="-0.214">
        <ele>2247.2</ele>
        <time>2017-03-21T07:38:05Z</time>
      </trkpt>
      <trkpt lat="42.81579" lon="-0.21482">
        <ele>2269.3</ele>
        <time>2017-03-21T07:41:02Z</time>
      </trkpt>
      <trkpt lat="42.8156" lon="-0.21491">
        <ele>2275.6</ele>
        <time>2017-03-21T07:41:50Z</time>
      </trkpt>
      <trkpt lat="42.81541" lon="-0.21518">
        <ele>2281.8</ele>
        <time>2017-03-21T07:42:51Z</time>
      </trkpt>
      <trkpt lat="42.81536" lon="-0.2153">
        <ele>2283.8</ele>
        <time>2017-03-21T07:43:07Z</time>
      </trkpt>
      <trkpt lat="42.8156" lon="-0.21711">
        <ele>2300.1</ele>
        <time>2017-03-21T07:47:00Z</time>
      </trkpt>
      <trkpt lat="42.81557" lon="-0.21716">
        <ele>2300.6</ele>
        <time>2017-03-21T07:47:23Z</time>
      </trkpt>
      <trkpt lat="42.81555" lon="-0.21712">
        <ele>2300.6</ele>
        <time>2017-03-21T07:47:52Z</time>
      </trkpt>
      <trkpt lat="42.81556" lon="-0.21709">
        <ele>2301.5</ele>
        <time>2017-03-21T07:48:27Z</time>
      </trkpt>
      <trkpt lat="42.81557" lon="-0.21713">
        <ele>2299.1</ele>
        <time>2017-03-21T07:48:57Z</time>
      </trkpt>
      <trkpt lat="42.8156" lon="-0.21715">
        <ele>2300.1</ele>
        <time>2017-03-21T07:49:09Z</time>
      </trkpt>
      <trkpt lat="42.81559" lon="-0.21713">
        <ele>2300.6</ele>
        <time>2017-03-21T07:49:26Z</time>
      </trkpt>
      <trkpt lat="42.81574" lon="-0.21687">
        <ele>2292.9</ele>
        <time>2017-03-21T07:49:35Z</time>
      </trkpt>
      <trkpt lat="42.81562" lon="-0.21701">
        <ele>2295.8</ele>
        <time>2017-03-21T07:50:01Z</time>
      </trkpt>
      <trkpt lat="42.8156" lon="-0.21717">
        <ele>2300.6</ele>
        <time>2017-03-21T07:50:31Z</time>
      </trkpt>
      <trkpt lat="42.81557" lon="-0.21715">
        <ele>2299.6</ele>
        <time>2017-03-21T07:51:40Z</time>
      </trkpt>
      <trkpt lat="42.8156" lon="-0.21716">
        <ele>2300.1</ele>
        <time>2017-03-21T07:52:04Z</time>
      </trkpt>
      <trkpt lat="42.81559" lon="-0.21716">
        <ele>2300.6</ele>
        <time>2017-03-21T07:52:28Z</time>
      </trkpt>
      <trkpt lat="42.81543" lon="-0.21731">
        <ele>2308.7</ele>
        <time>2017-03-21T07:53:35Z</time>
      </trkpt>
      <trkpt lat="42.81548" lon="-0.21754">
        <ele>2314</ele>
        <time>2017-03-21T07:54:25Z</time>
      </trkpt>
      <trkpt lat="42.8152" lon="-0.21868">
        <ele>2331.8</ele>
        <time>2017-03-21T07:57:35Z</time>
      </trkpt>
      <trkpt lat="42.81523" lon="-0.21873">
        <ele>2332.8</ele>
        <time>2017-03-21T07:57:51Z</time>
      </trkpt>
      <trkpt lat="42.81524" lon="-0.21881">
        <ele>2334.2</ele>
        <time>2017-03-21T07:58:06Z</time>
      </trkpt>
      <trkpt lat="42.81522" lon="-0.21888">
        <ele>2335.2</ele>
        <time>2017-03-21T07:58:24Z</time>
      </trkpt>
      <trkpt lat="42.81525" lon="-0.21891">
        <ele>2335.7</ele>
        <time>2017-03-21T07:58:37Z</time>
      </trkpt>
      <trkpt lat="42.81523" lon="-0.2189">
        <ele>2335.7</ele>
        <time>2017-03-21T07:58:52Z</time>
      </trkpt>
      <trkpt lat="42.81524" lon="-0.21893">
        <ele>2336.1</ele>
        <time>2017-03-21T07:59:13Z</time>
      </trkpt>
      <trkpt lat="42.81527" lon="-0.21894">
        <ele>2335.7</ele>
        <time>2017-03-21T07:59:32Z</time>
      </trkpt>
      <trkpt lat="42.81522" lon="-0.21916">
        <ele>2341.4</ele>
        <time>2017-03-21T08:00:12Z</time>
      </trkpt>
      <trkpt lat="42.81521" lon="-0.21917">
        <ele>2340.5</ele>
        <time>2017-03-21T08:00:22Z</time>
      </trkpt>
      <trkpt lat="42.81515" lon="-0.21979">
        <ele>2349.6</ele>
        <time>2017-03-21T08:01:51Z</time>
      </trkpt>
      <trkpt lat="42.8152" lon="-0.21988">
        <ele>2351.5</ele>
        <time>2017-03-21T08:02:05Z</time>
      </trkpt>
      <trkpt lat="42.81516" lon="-0.22051">
        <ele>2362.1</ele>
        <time>2017-03-21T08:03:45Z</time>
      </trkpt>
      <trkpt lat="42.81507" lon="-0.22057">
        <ele>2365.5</ele>
        <time>2017-03-21T08:04:14Z</time>
      </trkpt>
      <trkpt lat="42.81508" lon="-0.22084">
        <ele>2371.2</ele>
        <time>2017-03-21T08:05:05Z</time>
      </trkpt>
      <trkpt lat="42.81506" lon="-0.22087">
        <ele>2373.2</ele>
        <time>2017-03-21T08:05:20Z</time>
      </trkpt>
      <trkpt lat="42.81505" lon="-0.22104">
        <ele>2376.5</ele>
        <time>2017-03-21T08:05:51Z</time>
      </trkpt>
      <trkpt lat="42.81506" lon="-0.22107">
        <ele>2378</ele>
        <time>2017-03-21T08:06:06Z</time>
      </trkpt>
      <trkpt lat="42.81502" lon="-0.22112">
        <ele>2380.4</ele>
        <time>2017-03-21T08:06:22Z</time>
      </trkpt>
      <trkpt lat="42.81505" lon="-0.22118">
        <ele>2381.3</ele>
        <time>2017-03-21T08:06:39Z</time>
      </trkpt>
      <trkpt lat="42.81505" lon="-0.22166">
        <ele>2395.3</ele>
        <time>2017-03-21T08:08:34Z</time>
      </trkpt>
      <trkpt lat="42.81494" lon="-0.22224">
        <ele>2408.2</ele>
        <time>2017-03-21T08:10:23Z</time>
      </trkpt>
      <trkpt lat="42.81491" lon="-0.22229">
        <ele>2409.7</ele>
        <time>2017-03-21T08:10:40Z</time>
      </trkpt>
      <trkpt lat="42.81492" lon="-0.22227">
        <ele>2408.7</ele>
        <time>2017-03-21T08:10:59Z</time>
      </trkpt>
      <trkpt lat="42.81491" lon="-0.2223">
        <ele>2408.7</ele>
        <time>2017-03-21T08:11:32Z</time>
      </trkpt>
      <trkpt lat="42.81496" lon="-0.22232">
        <ele>2405.4</ele>
        <time>2017-03-21T08:12:06Z</time>
      </trkpt>
      <trkpt lat="42.81495" lon="-0.22233">
        <ele>2405.8</ele>
        <time>2017-03-21T08:12:10Z</time>
      </trkpt>
      <trkpt lat="42.81495" lon="-0.22233">
        <ele>2409.2</ele>
        <time>2017-03-21T08:12:11Z</time>
      </trkpt>
      <trkpt lat="42.81493" lon="-0.22232">
        <ele>2408.7</ele>
        <time>2017-03-21T08:12:17Z</time>
      </trkpt>
      <trkpt lat="42.81493" lon="-0.22231">
        <ele>2410.6</ele>
        <time>2017-03-21T08:12:18Z</time>
      </trkpt>
      <trkpt lat="42.81491" lon="-0.22228">
        <ele>2410.2</ele>
        <time>2017-03-21T08:12:36Z</time>
      </trkpt>
      <trkpt lat="42.81488" lon="-0.22228">
        <ele>2409.2</ele>
        <time>2017-03-21T08:12:49Z</time>
      </trkpt>
      <trkpt lat="42.81488" lon="-0.22227">
        <ele>2409.7</ele>
        <time>2017-03-21T08:12:58Z</time>
      </trkpt>
      <trkpt lat="42.8149" lon="-0.22232">
        <ele>2409.2</ele>
        <time>2017-03-21T08:13:13Z</time>
      </trkpt>
      <trkpt lat="42.81489" lon="-0.22233">
        <ele>2410.2</ele>
        <time>2017-03-21T08:13:33Z</time>
      </trkpt>
      <trkpt lat="42.8149" lon="-0.22237">
        <ele>2410.2</ele>
        <time>2017-03-21T08:14:07Z</time>
      </trkpt>
      <trkpt lat="42.81485" lon="-0.22239">
        <ele>2412.1</ele>
        <time>2017-03-21T08:14:28Z</time>
      </trkpt>
      <trkpt lat="42.81481" lon="-0.22239">
        <ele>2414</ele>
        <time>2017-03-21T08:14:44Z</time>
      </trkpt>
      <trkpt lat="42.8148" lon="-0.22249">
        <ele>2416.4</ele>
        <time>2017-03-21T08:14:58Z</time>
      </trkpt>
      <trkpt lat="42.81484" lon="-0.22254">
        <ele>2418.3</ele>
        <time>2017-03-21T08:15:13Z</time>
      </trkpt>
      <trkpt lat="42.81483" lon="-0.22256">
        <ele>2420.7</ele>
        <time>2017-03-21T08:15:30Z</time>
      </trkpt>
      <trkpt lat="42.81477" lon="-0.2225">
        <ele>2422.7</ele>
        <time>2017-03-21T08:15:47Z</time>
      </trkpt>
      <trkpt lat="42.81474" lon="-0.22252">
        <ele>2424.6</ele>
        <time>2017-03-21T08:16:01Z</time>
      </trkpt>
      <trkpt lat="42.8147" lon="-0.22263">
        <ele>2427.5</ele>
        <time>2017-03-21T08:16:16Z</time>
      </trkpt>
      <trkpt lat="42.81475" lon="-0.22274">
        <ele>2428.9</ele>
        <time>2017-03-21T08:16:33Z</time>
      </trkpt>
      <trkpt lat="42.81418" lon="-0.2243">
        <ele>2444.3</ele>
        <time>2017-03-21T08:20:15Z</time>
      </trkpt>
      <trkpt lat="42.81417" lon="-0.2243">
        <ele>2444.3</ele>
        <time>2017-03-21T08:20:43Z</time>
      </trkpt>
      <trkpt lat="42.81416" lon="-0.22429">
        <ele>2443.3</ele>
        <time>2017-03-21T08:21:05Z</time>
      </trkpt>
      <trkpt lat="42.81417" lon="-0.22431">
        <ele>2444.3</ele>
        <time>2017-03-21T08:21:39Z</time>
      </trkpt>
      <trkpt lat="42.81419" lon="-0.22433">
        <ele>2443.8</ele>
        <time>2017-03-21T08:22:18Z</time>
      </trkpt>
      <trkpt lat="42.81418" lon="-0.22434">
        <ele>2441.9</ele>
        <time>2017-03-21T08:22:51Z</time>
      </trkpt>
      <trkpt lat="42.81414" lon="-0.22429">
        <ele>2443.8</ele>
        <time>2017-03-21T08:23:23Z</time>
      </trkpt>
      <trkpt lat="42.81418" lon="-0.22431">
        <ele>2443.8</ele>
        <time>2017-03-21T08:23:50Z</time>
      </trkpt>
      <trkpt lat="42.81417" lon="-0.22435">
        <ele>2442.9</ele>
        <time>2017-03-21T08:24:21Z</time>
      </trkpt>
      <trkpt lat="42.81416" lon="-0.22431">
        <ele>2443.3</ele>
        <time>2017-03-21T08:24:43Z</time>
      </trkpt>
      <trkpt lat="42.81416" lon="-0.22435">
        <ele>2443.8</ele>
        <time>2017-03-21T08:25:01Z</time>
      </trkpt>
      <trkpt lat="42.81415" lon="-0.22442">
        <ele>2443.3</ele>
        <time>2017-03-21T08:25:16Z</time>
      </trkpt>
      <trkpt lat="42.81414" lon="-0.22441">
        <ele>2444.3</ele>
        <time>2017-03-21T08:25:37Z</time>
      </trkpt>
      <trkpt lat="42.81413" lon="-0.2244">
        <ele>2444.3</ele>
        <time>2017-03-21T08:25:51Z</time>
      </trkpt>
      <trkpt lat="42.8133" lon="-0.22596">
        <ele>2470.2</ele>
        <time>2017-03-21T08:29:55Z</time>
      </trkpt>
      <trkpt lat="42.81342" lon="-0.22926">
        <ele>2481.3</ele>
        <time>2017-03-21T08:35:26Z</time>
      </trkpt>
      <trkpt lat="42.81293" lon="-0.23042">
        <ele>2490</ele>
        <time>2017-03-21T08:37:55Z</time>
      </trkpt>
      <trkpt lat="42.81286" lon="-0.23046">
        <ele>2491.9</ele>
        <time>2017-03-21T08:38:13Z</time>
      </trkpt>
      <trkpt lat="42.81273" lon="-0.23046">
        <ele>2494.3</ele>
        <time>2017-03-21T08:38:43Z</time>
      </trkpt>
      <trkpt lat="42.81273" lon="-0.23046">
        <ele>2494.3</ele>
        <time>2017-03-21T08:39:09Z</time>
      </trkpt>
      <trkpt lat="42.81258" lon="-0.2315">
        <ele>2509.7</ele>
        <time>2017-03-21T08:42:07Z</time>
      </trkpt>
      <trkpt lat="42.8125" lon="-0.23162">
        <ele>2515.9</ele>
        <time>2017-03-21T08:42:34Z</time>
      </trkpt>
      <trkpt lat="42.81243" lon="-0.23213">
        <ele>2521.2</ele>
        <time>2017-03-21T08:44:02Z</time>
      </trkpt>
      <trkpt lat="42.81245" lon="-0.23219">
        <ele>2523.6</ele>
        <time>2017-03-21T08:44:22Z</time>
      </trkpt>
      <trkpt lat="42.81232" lon="-0.23281">
        <ele>2537.1</ele>
        <time>2017-03-21T08:46:12Z</time>
      </trkpt>
      <trkpt lat="42.81233" lon="-0.23289">
        <ele>2537.5</ele>
        <time>2017-03-21T08:46:29Z</time>
      </trkpt>
      <trkpt lat="42.81231" lon="-0.23295">
        <ele>2539.9</ele>
        <time>2017-03-21T08:46:43Z</time>
      </trkpt>
      <trkpt lat="42.81238" lon="-0.23377">
        <ele>2554.8</ele>
        <time>2017-03-21T08:49:36Z</time>
      </trkpt>
      <trkpt lat="42.81243" lon="-0.23379">
        <ele>2557.7</ele>
        <time>2017-03-21T08:49:52Z</time>
      </trkpt>
      <trkpt lat="42.8123" lon="-0.23417">
        <ele>2569.7</ele>
        <time>2017-03-21T08:51:28Z</time>
      </trkpt>
      <trkpt lat="42.81234" lon="-0.23432">
        <ele>2572.1</ele>
        <time>2017-03-21T08:51:48Z</time>
      </trkpt>
      <trkpt lat="42.81222" lon="-0.23572">
        <ele>2585.6</ele>
        <time>2017-03-21T08:54:43Z</time>
      </trkpt>
      <trkpt lat="42.81225" lon="-0.23584">
        <ele>2587</ele>
        <time>2017-03-21T08:55:00Z</time>
      </trkpt>
      <trkpt lat="42.81222" lon="-0.23624">
        <ele>2593.3</ele>
        <time>2017-03-21T08:55:58Z</time>
      </trkpt>
      <trkpt lat="42.81223" lon="-0.23627">
        <ele>2596.2</ele>
        <time>2017-03-21T08:56:16Z</time>
      </trkpt>
      <trkpt lat="42.81226" lon="-0.23623">
        <ele>2596.2</ele>
        <time>2017-03-21T08:56:46Z</time>
      </trkpt>
      <trkpt lat="42.81226" lon="-0.23624">
        <ele>2595.2</ele>
        <time>2017-03-21T08:56:47Z</time>
      </trkpt>
      <trkpt lat="42.81229" lon="-0.23623">
        <ele>2594.3</ele>
        <time>2017-03-21T08:57:07Z</time>
      </trkpt>
      <trkpt lat="42.81221" lon="-0.23627">
        <ele>2595.2</ele>
        <time>2017-03-21T08:58:14Z</time>
      </trkpt>
      <trkpt lat="42.81229" lon="-0.23625">
        <ele>2596.2</ele>
        <time>2017-03-21T08:59:33Z</time>
      </trkpt>
      <trkpt lat="42.81226" lon="-0.23627">
        <ele>2595.7</ele>
        <time>2017-03-21T09:00:27Z</time>
      </trkpt>
      <trkpt lat="42.81229" lon="-0.23622">
        <ele>2595.2</ele>
        <time>2017-03-21T09:01:04Z</time>
      </trkpt>
      <trkpt lat="42.81229" lon="-0.2362">
        <ele>2596.2</ele>
        <time>2017-03-21T09:01:39Z</time>
      </trkpt>
      <trkpt lat="42.81226" lon="-0.23621">
        <ele>2598.6</ele>
        <time>2017-03-21T09:02:11Z</time>
      </trkpt>
      <trkpt lat="42.8123" lon="-0.23626">
        <ele>2596.7</ele>
        <time>2017-03-21T09:02:36Z</time>
      </trkpt>
      <trkpt lat="42.81228" lon="-0.2364">
        <ele>2598.1</ele>
        <time>2017-03-21T09:02:55Z</time>
      </trkpt>
      <trkpt lat="42.81231" lon="-0.23651">
        <ele>2601.5</ele>
        <time>2017-03-21T09:03:10Z</time>
      </trkpt>
      <trkpt lat="42.81231" lon="-0.23652">
        <ele>2601.5</ele>
        <time>2017-03-21T09:03:11Z</time>
      </trkpt>
      <trkpt lat="42.81238" lon="-0.23671">
        <ele>2604.8</ele>
        <time>2017-03-21T09:03:43Z</time>
      </trkpt>
      <trkpt lat="42.8124" lon="-0.23671">
        <ele>2603.4</ele>
        <time>2017-03-21T09:03:46Z</time>
      </trkpt>
      <trkpt lat="42.81243" lon="-0.23695">
        <ele>2610.1</ele>
        <time>2017-03-21T09:04:23Z</time>
      </trkpt>
      <trkpt lat="42.81273" lon="-0.23759">
        <ele>2625.5</ele>
        <time>2017-03-21T09:06:39Z</time>
      </trkpt>
      <trkpt lat="42.81286" lon="-0.23762">
        <ele>2628.4</ele>
        <time>2017-03-21T09:07:11Z</time>
      </trkpt>
      <trkpt lat="42.81288" lon="-0.23773">
        <ele>2631.8</ele>
        <time>2017-03-21T09:07:34Z</time>
      </trkpt>
      <trkpt lat="42.81281" lon="-0.23797">
        <ele>2638.5</ele>
        <time>2017-03-21T09:08:22Z</time>
      </trkpt>
      <trkpt lat="42.81284" lon="-0.23803">
        <ele>2638.5</ele>
        <time>2017-03-21T09:08:34Z</time>
      </trkpt>
      <trkpt lat="42.81293" lon="-0.23805">
        <ele>2640.4</ele>
        <time>2017-03-21T09:08:51Z</time>
      </trkpt>
      <trkpt lat="42.81295" lon="-0.23811">
        <ele>2641.8</ele>
        <time>2017-03-21T09:09:11Z</time>
      </trkpt>
      <trkpt lat="42.81301" lon="-0.23815">
        <ele>2644.7</ele>
        <time>2017-03-21T09:09:35Z</time>
      </trkpt>
      <trkpt lat="42.81317" lon="-0.23818">
        <ele>2648.1</ele>
        <time>2017-03-21T09:10:05Z</time>
      </trkpt>
      <trkpt lat="42.81315" lon="-0.23819">
        <ele>2649.5</ele>
        <time>2017-03-21T09:10:16Z</time>
      </trkpt>
      <trkpt lat="42.81319" lon="-0.23828">
        <ele>2651.9</ele>
        <time>2017-03-21T09:10:32Z</time>
      </trkpt>
      <trkpt lat="42.81312" lon="-0.23847">
        <ele>2653.4</ele>
        <time>2017-03-21T09:10:47Z</time>
      </trkpt>
      <trkpt lat="42.81306" lon="-0.23854">
        <ele>2656.3</ele>
        <time>2017-03-21T09:11:01Z</time>
      </trkpt>
      <trkpt lat="42.81303" lon="-0.23855">
        <ele>2657.7</ele>
        <time>2017-03-21T09:11:15Z</time>
      </trkpt>
      <trkpt lat="42.81304" lon="-0.23864">
        <ele>2659.6</ele>
        <time>2017-03-21T09:11:44Z</time>
      </trkpt>
      <trkpt lat="42.81295" lon="-0.23872">
        <ele>2664.9</ele>
        <time>2017-03-21T09:12:13Z</time>
      </trkpt>
      <trkpt lat="42.81295" lon="-0.23873">
        <ele>2664</ele>
        <time>2017-03-21T09:12:17Z</time>
      </trkpt>
      <trkpt lat="42.81304" lon="-0.23878">
        <ele>2665.4</ele>
        <time>2017-03-21T09:12:31Z</time>
      </trkpt>
      <trkpt lat="42.81309" lon="-0.23876">
        <ele>2665.9</ele>
        <time>2017-03-21T09:12:50Z</time>
      </trkpt>
      <trkpt lat="42.81313" lon="-0.23883">
        <ele>2669.2</ele>
        <time>2017-03-21T09:13:13Z</time>
      </trkpt>
      <trkpt lat="42.81311" lon="-0.23918">
        <ele>2677.9</ele>
        <time>2017-03-21T09:14:33Z</time>
      </trkpt>
      <trkpt lat="42.81311" lon="-0.23917">
        <ele>2676.9</ele>
        <time>2017-03-21T09:14:57Z</time>
      </trkpt>
      <trkpt lat="42.81315" lon="-0.23932">
        <ele>2678.9</ele>
        <time>2017-03-21T09:15:15Z</time>
      </trkpt>
      <trkpt lat="42.81313" lon="-0.23943">
        <ele>2677.9</ele>
        <time>2017-03-21T09:15:31Z</time>
      </trkpt>
      <trkpt lat="42.81312" lon="-0.23942">
        <ele>2676</ele>
        <time>2017-03-21T09:15:47Z</time>
      </trkpt>
      <trkpt lat="42.81312" lon="-0.23944">
        <ele>2675.5</ele>
        <time>2017-03-21T09:16:03Z</time>
      </trkpt>
      <trkpt lat="42.81313" lon="-0.23944">
        <ele>2674.5</ele>
        <time>2017-03-21T09:16:53Z</time>
      </trkpt>
      <trkpt lat="42.81313" lon="-0.23945">
        <ele>2672.6</ele>
        <time>2017-03-21T09:17:05Z</time>
      </trkpt>
      <trkpt lat="42.81313" lon="-0.23944">
        <ele>2676.9</ele>
        <time>2017-03-21T09:17:26Z</time>
      </trkpt>
      <trkpt lat="42.81313" lon="-0.23943">
        <ele>2673.1</ele>
        <time>2017-03-21T09:17:28Z</time>
      </trkpt>
      <trkpt lat="42.81313" lon="-0.23944">
        <ele>2672.1</ele>
        <time>2017-03-21T09:18:16Z</time>
      </trkpt>
      <trkpt lat="42.81312" lon="-0.23943">
        <ele>2672.6</ele>
        <time>2017-03-21T09:19:03Z</time>
      </trkpt>
      <trkpt lat="42.81313" lon="-0.23944">
        <ele>2672.1</ele>
        <time>2017-03-21T09:19:35Z</time>
      </trkpt>
      <trkpt lat="42.81312" lon="-0.23943">
        <ele>2671.6</ele>
        <time>2017-03-21T09:20:01Z</time>
      </trkpt>
      <trkpt lat="42.81312" lon="-0.23942">
        <ele>2671.6</ele>
        <time>2017-03-21T09:20:35Z</time>
      </trkpt>
      <trkpt lat="42.81311" lon="-0.23941">
        <ele>2671.6</ele>
        <time>2017-03-21T09:21:06Z</time>
      </trkpt>
      <trkpt lat="42.81313" lon="-0.23943">
        <ele>2671.6</ele>
        <time>2017-03-21T09:21:57Z</time>
      </trkpt>
      <trkpt lat="42.81311" lon="-0.23944">
        <ele>2671.2</ele>
        <time>2017-03-21T09:22:28Z</time>
      </trkpt>
      <trkpt lat="42.8131" lon="-0.2394">
        <ele>2672.6</ele>
        <time>2017-03-21T09:23:03Z</time>
      </trkpt>
      <trkpt lat="42.81311" lon="-0.23942">
        <ele>2672.1</ele>
        <time>2017-03-21T09:23:27Z</time>
      </trkpt>
      <trkpt lat="42.81312" lon="-0.23942">
        <ele>2672.1</ele>
        <time>2017-03-21T09:23:40Z</time>
      </trkpt>
      <trkpt lat="42.81312" lon="-0.23942">
        <ele>2671.6</ele>
        <time>2017-03-21T09:24:08Z</time>
      </trkpt>
      <trkpt lat="42.81309" lon="-0.23946">
        <ele>2671.6</ele>
        <time>2017-03-21T09:25:00Z</time>
      </trkpt>
      <trkpt lat="42.81311" lon="-0.23943">
        <ele>2674.5</ele>
        <time>2017-03-21T09:26:07Z</time>
      </trkpt>
      <trkpt lat="42.81311" lon="-0.23943">
        <ele>2675</ele>
        <time>2017-03-21T09:26:13Z</time>
      </trkpt>
      <trkpt lat="42.81311" lon="-0.23942">
        <ele>2673.6</ele>
        <time>2017-03-21T09:26:32Z</time>
      </trkpt>
      <trkpt lat="42.81312" lon="-0.23939">
        <ele>2674</ele>
        <time>2017-03-21T09:26:50Z</time>
      </trkpt>
      <trkpt lat="42.81312" lon="-0.23943">
        <ele>2673.1</ele>
        <time>2017-03-21T09:27:07Z</time>
      </trkpt>
      <trkpt lat="42.81312" lon="-0.23943">
        <ele>2674</ele>
        <time>2017-03-21T09:27:19Z</time>
      </trkpt>
      <trkpt lat="42.81312" lon="-0.23942">
        <ele>2671.2</ele>
        <time>2017-03-21T09:27:40Z</time>
      </trkpt>
      <trkpt lat="42.81312" lon="-0.23944">
        <ele>2672.6</ele>
        <time>2017-03-21T09:27:55Z</time>
      </trkpt>
      <trkpt lat="42.81347" lon="-0.23966">
        <ele>2665.9</ele>
        <time>2017-03-21T09:28:08Z</time>
      </trkpt>
      <trkpt lat="42.81349" lon="-0.2397">
        <ele>2664.4</ele>
        <time>2017-03-21T09:28:09Z</time>
      </trkpt>
      <trkpt lat="42.81328" lon="-0.23988">
        <ele>2653.9</ele>
        <time>2017-03-21T09:28:16Z</time>
      </trkpt>
      <trkpt lat="42.8133" lon="-0.24004">
        <ele>2651</ele>
        <time>2017-03-21T09:28:21Z</time>
      </trkpt>
      <trkpt lat="42.81332" lon="-0.24004">
        <ele>2650.5</ele>
        <time>2017-03-21T09:28:35Z</time>
      </trkpt>
      <trkpt lat="42.81315" lon="-0.24008">
        <ele>2646.2</ele>
        <time>2017-03-21T09:28:40Z</time>
      </trkpt>
      <trkpt lat="42.81312" lon="-0.24012">
        <ele>2645.7</ele>
        <time>2017-03-21T09:28:41Z</time>
      </trkpt>
      <trkpt lat="42.8131" lon="-0.24039">
        <ele>2635.6</ele>
        <time>2017-03-21T09:28:45Z</time>
      </trkpt>
      <trkpt lat="42.81305" lon="-0.24046">
        <ele>2635.1</ele>
        <time>2017-03-21T09:28:46Z</time>
      </trkpt>
      <trkpt lat="42.81288" lon="-0.24106">
        <ele>2625</ele>
        <time>2017-03-21T09:28:56Z</time>
      </trkpt>
      <trkpt lat="42.8129" lon="-0.24111">
        <ele>2623.6</ele>
        <time>2017-03-21T09:28:57Z</time>
      </trkpt>
      <trkpt lat="42.81286" lon="-0.24136">
        <ele>2619.7</ele>
        <time>2017-03-21T09:29:03Z</time>
      </trkpt>
      <trkpt lat="42.81281" lon="-0.24144">
        <ele>2617.3</ele>
        <time>2017-03-21T09:29:09Z</time>
      </trkpt>
      <trkpt lat="42.81277" lon="-0.24146">
        <ele>2615.9</ele>
        <time>2017-03-21T09:29:17Z</time>
      </trkpt>
      <trkpt lat="42.81275" lon="-0.24156">
        <ele>2614.4</ele>
        <time>2017-03-21T09:29:25Z</time>
      </trkpt>
      <trkpt lat="42.81254" lon="-0.24148">
        <ele>2607.7</ele>
        <time>2017-03-21T09:29:33Z</time>
      </trkpt>
      <trkpt lat="42.81238" lon="-0.24151">
        <ele>2604.8</ele>
        <time>2017-03-21T09:29:37Z</time>
      </trkpt>
      <trkpt lat="42.81236" lon="-0.2416">
        <ele>2603.9</ele>
        <time>2017-03-21T09:29:39Z</time>
      </trkpt>
      <trkpt lat="42.81241" lon="-0.24168">
        <ele>2599.1</ele>
        <time>2017-03-21T09:29:41Z</time>
      </trkpt>
      <trkpt lat="42.81238" lon="-0.24174">
        <ele>2595.2</ele>
        <time>2017-03-21T09:29:43Z</time>
      </trkpt>
      <trkpt lat="42.81241" lon="-0.24184">
        <ele>2590.9</ele>
        <time>2017-03-21T09:29:46Z</time>
      </trkpt>
      <trkpt lat="42.81235" lon="-0.24187">
        <ele>2587.5</ele>
        <time>2017-03-21T09:29:49Z</time>
      </trkpt>
      <trkpt lat="42.81233" lon="-0.24186">
        <ele>2586.6</ele>
        <time>2017-03-21T09:29:51Z</time>
      </trkpt>
      <trkpt lat="42.81233" lon="-0.24189">
        <ele>2587.5</ele>
        <time>2017-03-21T09:30:11Z</time>
      </trkpt>
      <trkpt lat="42.81231" lon="-0.24192">
        <ele>2586.6</ele>
        <time>2017-03-21T09:30:13Z</time>
      </trkpt>
      <trkpt lat="42.81233" lon="-0.24203">
        <ele>2583.2</ele>
        <time>2017-03-21T09:30:16Z</time>
      </trkpt>
      <trkpt lat="42.81228" lon="-0.24206">
        <ele>2579.4</ele>
        <time>2017-03-21T09:30:18Z</time>
      </trkpt>
      <trkpt lat="42.81222" lon="-0.24222">
        <ele>2569.7</ele>
        <time>2017-03-21T09:30:22Z</time>
      </trkpt>
      <trkpt lat="42.81214" lon="-0.24224">
        <ele>2566.9</ele>
        <time>2017-03-21T09:30:24Z</time>
      </trkpt>
      <trkpt lat="42.81219" lon="-0.24242">
        <ele>2558.2</ele>
        <time>2017-03-21T09:30:31Z</time>
      </trkpt>
      <trkpt lat="42.8121" lon="-0.24248">
        <ele>2552.9</ele>
        <time>2017-03-21T09:30:33Z</time>
      </trkpt>
      <trkpt lat="42.81202" lon="-0.2425">
        <ele>2552.9</ele>
        <time>2017-03-21T09:30:40Z</time>
      </trkpt>
      <trkpt lat="42.81124" lon="-0.2437">
        <ele>2538</ele>
        <time>2017-03-21T09:31:14Z</time>
      </trkpt>
      <trkpt lat="42.81147" lon="-0.24549">
        <ele>2525.5</ele>
        <time>2017-03-21T09:32:15Z</time>
      </trkpt>
      <trkpt lat="42.81162" lon="-0.24551">
        <ele>2523.1</ele>
        <time>2017-03-21T09:32:20Z</time>
      </trkpt>
      <trkpt lat="42.81167" lon="-0.24555">
        <ele>2523.1</ele>
        <time>2017-03-21T09:32:54Z</time>
      </trkpt>
      <trkpt lat="42.81167" lon="-0.24555">
        <ele>2523.1</ele>
        <time>2017-03-21T09:33:17Z</time>
      </trkpt>
      <trkpt lat="42.81151" lon="-0.24587">
        <ele>2521.7</ele>
        <time>2017-03-21T09:33:41Z</time>
      </trkpt>
      <trkpt lat="42.81158" lon="-0.24595">
        <ele>2518.8</ele>
        <time>2017-03-21T09:33:46Z</time>
      </trkpt>
      <trkpt lat="42.8116" lon="-0.24619">
        <ele>2511.6</ele>
        <time>2017-03-21T09:33:54Z</time>
      </trkpt>
      <trkpt lat="42.81154" lon="-0.24624">
        <ele>2509.7</ele>
        <time>2017-03-21T09:33:57Z</time>
      </trkpt>
      <trkpt lat="42.81161" lon="-0.24636">
        <ele>2506.3</ele>
        <time>2017-03-21T09:34:01Z</time>
      </trkpt>
      <trkpt lat="42.81158" lon="-0.24643">
        <ele>2503.9</ele>
        <time>2017-03-21T09:34:15Z</time>
      </trkpt>
      <trkpt lat="42.8116" lon="-0.24655">
        <ele>2499.6</ele>
        <time>2017-03-21T09:34:20Z</time>
      </trkpt>
      <trkpt lat="42.8115" lon="-0.24672">
        <ele>2495.2</ele>
        <time>2017-03-21T09:34:26Z</time>
      </trkpt>
      <trkpt lat="42.81153" lon="-0.24678">
        <ele>2491.9</ele>
        <time>2017-03-21T09:34:28Z</time>
      </trkpt>
      <trkpt lat="42.81143" lon="-0.24685">
        <ele>2488</ele>
        <time>2017-03-21T09:34:36Z</time>
      </trkpt>
      <trkpt lat="42.81146" lon="-0.24693">
        <ele>2487.1</ele>
        <time>2017-03-21T09:34:40Z</time>
      </trkpt>
      <trkpt lat="42.81144" lon="-0.24702">
        <ele>2484.7</ele>
        <time>2017-03-21T09:34:43Z</time>
      </trkpt>
      <trkpt lat="42.81139" lon="-0.24703">
        <ele>2481.8</ele>
        <time>2017-03-21T09:34:46Z</time>
      </trkpt>
      <trkpt lat="42.81139" lon="-0.24702">
        <ele>2480.8</ele>
        <time>2017-03-21T09:35:02Z</time>
      </trkpt>
      <trkpt lat="42.81135" lon="-0.24712">
        <ele>2478.9</ele>
        <time>2017-03-21T09:35:07Z</time>
      </trkpt>
      <trkpt lat="42.81141" lon="-0.2472">
        <ele>2475.1</ele>
        <time>2017-03-21T09:35:11Z</time>
      </trkpt>
      <trkpt lat="42.81136" lon="-0.24741">
        <ele>2469.3</ele>
        <time>2017-03-21T09:35:17Z</time>
      </trkpt>
      <trkpt lat="42.81138" lon="-0.24755">
        <ele>2464</ele>
        <time>2017-03-21T09:35:20Z</time>
      </trkpt>
      <trkpt lat="42.81135" lon="-0.24765">
        <ele>2461.1</ele>
        <time>2017-03-21T09:35:23Z</time>
      </trkpt>
      <trkpt lat="42.81137" lon="-0.24774">
        <ele>2456.3</ele>
        <time>2017-03-21T09:35:25Z</time>
      </trkpt>
      <trkpt lat="42.8113" lon="-0.24777">
        <ele>2453.9</ele>
        <time>2017-03-21T09:35:28Z</time>
      </trkpt>
      <trkpt lat="42.81132" lon="-0.24789">
        <ele>2450.1</ele>
        <time>2017-03-21T09:35:33Z</time>
      </trkpt>
      <trkpt lat="42.81124" lon="-0.248">
        <ele>2445.7</ele>
        <time>2017-03-21T09:35:39Z</time>
      </trkpt>
      <trkpt lat="42.81135" lon="-0.24815">
        <ele>2439.5</ele>
        <time>2017-03-21T09:35:55Z</time>
      </trkpt>
      <trkpt lat="42.81139" lon="-0.2481">
        <ele>2439</ele>
        <time>2017-03-21T09:36:13Z</time>
      </trkpt>
      <trkpt lat="42.81143" lon="-0.24814">
        <ele>2439.5</ele>
        <time>2017-03-21T09:36:34Z</time>
      </trkpt>
      <trkpt lat="42.8114" lon="-0.24816">
        <ele>2440</ele>
        <time>2017-03-21T09:36:49Z</time>
      </trkpt>
      <trkpt lat="42.8114" lon="-0.24816">
        <ele>2439.5</ele>
        <time>2017-03-21T09:36:53Z</time>
      </trkpt>
      <trkpt lat="42.81145" lon="-0.24824">
        <ele>2440.4</ele>
        <time>2017-03-21T09:36:56Z</time>
      </trkpt>
      <trkpt lat="42.81145" lon="-0.24835">
        <ele>2437.1</ele>
        <time>2017-03-21T09:36:58Z</time>
      </trkpt>
      <trkpt lat="42.81138" lon="-0.24842">
        <ele>2433.7</ele>
        <time>2017-03-21T09:37:00Z</time>
      </trkpt>
      <trkpt lat="42.81144" lon="-0.24931">
        <ele>2412.6</ele>
        <time>2017-03-21T09:37:13Z</time>
      </trkpt>
      <trkpt lat="42.81134" lon="-0.24939">
        <ele>2408.7</ele>
        <time>2017-03-21T09:37:18Z</time>
      </trkpt>
      <trkpt lat="42.81138" lon="-0.24931">
        <ele>2408.7</ele>
        <time>2017-03-21T09:37:37Z</time>
      </trkpt>
      <trkpt lat="42.81132" lon="-0.24931">
        <ele>2408.7</ele>
        <time>2017-03-21T09:37:59Z</time>
      </trkpt>
      <trkpt lat="42.81123" lon="-0.24939">
        <ele>2406.8</ele>
        <time>2017-03-21T09:38:04Z</time>
      </trkpt>
      <trkpt lat="42.81125" lon="-0.2497">
        <ele>2400.1</ele>
        <time>2017-03-21T09:38:11Z</time>
      </trkpt>
      <trkpt lat="42.81128" lon="-0.24972">
        <ele>2397.2</ele>
        <time>2017-03-21T09:38:14Z</time>
      </trkpt>
      <trkpt lat="42.81118" lon="-0.25023">
        <ele>2384.7</ele>
        <time>2017-03-21T09:38:24Z</time>
      </trkpt>
      <trkpt lat="42.8112" lon="-0.25021">
        <ele>2384.7</ele>
        <time>2017-03-21T09:38:26Z</time>
      </trkpt>
      <trkpt lat="42.81117" lon="-0.2503">
        <ele>2383.7</ele>
        <time>2017-03-21T09:38:28Z</time>
      </trkpt>
      <trkpt lat="42.81114" lon="-0.25033">
        <ele>2382.3</ele>
        <time>2017-03-21T09:38:29Z</time>
      </trkpt>
      <trkpt lat="42.81108" lon="-0.25057">
        <ele>2379.4</ele>
        <time>2017-03-21T09:38:34Z</time>
      </trkpt>
      <trkpt lat="42.8113" lon="-0.25155">
        <ele>2353.9</ele>
        <time>2017-03-21T09:38:49Z</time>
      </trkpt>
      <trkpt lat="42.81139" lon="-0.25165">
        <ele>2353.9</ele>
        <time>2017-03-21T09:38:52Z</time>
      </trkpt>
      <trkpt lat="42.81146" lon="-0.25182">
        <ele>2352</ele>
        <time>2017-03-21T09:38:56Z</time>
      </trkpt>
      <trkpt lat="42.81134" lon="-0.25205">
        <ele>2348.2</ele>
        <time>2017-03-21T09:39:01Z</time>
      </trkpt>
      <trkpt lat="42.8114" lon="-0.25242">
        <ele>2343.4</ele>
        <time>2017-03-21T09:39:08Z</time>
      </trkpt>
      <trkpt lat="42.81122" lon="-0.25235">
        <ele>2342.4</ele>
        <time>2017-03-21T09:40:32Z</time>
      </trkpt>
      <trkpt lat="42.81108" lon="-0.25263">
        <ele>2339.5</ele>
        <time>2017-03-21T09:40:46Z</time>
      </trkpt>
      <trkpt lat="42.81116" lon="-0.25277">
        <ele>2334.7</ele>
        <time>2017-03-21T09:40:49Z</time>
      </trkpt>
      <trkpt lat="42.81115" lon="-0.25287">
        <ele>2331.8</ele>
        <time>2017-03-21T09:40:52Z</time>
      </trkpt>
      <trkpt lat="42.81124" lon="-0.25306">
        <ele>2327.5</ele>
        <time>2017-03-21T09:40:56Z</time>
      </trkpt>
      <trkpt lat="42.81122" lon="-0.25315">
        <ele>2325.1</ele>
        <time>2017-03-21T09:40:58Z</time>
      </trkpt>
      <trkpt lat="42.81116" lon="-0.25324">
        <ele>2323.6</ele>
        <time>2017-03-21T09:41:01Z</time>
      </trkpt>
      <trkpt lat="42.81114" lon="-0.25345">
        <ele>2322.2</ele>
        <time>2017-03-21T09:41:06Z</time>
      </trkpt>
      <trkpt lat="42.81134" lon="-0.25363">
        <ele>2316.9</ele>
        <time>2017-03-21T09:41:11Z</time>
      </trkpt>
      <trkpt lat="42.81143" lon="-0.25392">
        <ele>2313.1</ele>
        <time>2017-03-21T09:41:15Z</time>
      </trkpt>
      <trkpt lat="42.81141" lon="-0.254">
        <ele>2313.6</ele>
        <time>2017-03-21T09:41:16Z</time>
      </trkpt>
      <trkpt lat="42.81131" lon="-0.25414">
        <ele>2309.2</ele>
        <time>2017-03-21T09:41:18Z</time>
      </trkpt>
      <trkpt lat="42.81125" lon="-0.25543">
        <ele>2295.3</ele>
        <time>2017-03-21T09:41:33Z</time>
      </trkpt>
      <trkpt lat="42.8125" lon="-0.26071">
        <ele>2251.5</ele>
        <time>2017-03-21T09:42:35Z</time>
      </trkpt>
      <trkpt lat="42.8124" lon="-0.26184">
        <ele>2244.3</ele>
        <time>2017-03-21T09:42:47Z</time>
      </trkpt>
      <trkpt lat="42.81257" lon="-0.26243">
        <ele>2242.9</ele>
        <time>2017-03-21T09:43:06Z</time>
      </trkpt>
      <trkpt lat="42.81262" lon="-0.26249">
        <ele>2242.4</ele>
        <time>2017-03-21T09:43:22Z</time>
      </trkpt>
      <trkpt lat="42.81288" lon="-0.26249">
        <ele>2234.2</ele>
        <time>2017-03-21T09:43:28Z</time>
      </trkpt>
      <trkpt lat="42.81297" lon="-0.26255">
        <ele>2230.4</ele>
        <time>2017-03-21T09:43:30Z</time>
      </trkpt>
      <trkpt lat="42.8132" lon="-0.26349">
        <ele>2225.6</ele>
        <time>2017-03-21T09:43:45Z</time>
      </trkpt>
      <trkpt lat="42.81315" lon="-0.26348">
        <ele>2226.6</ele>
        <time>2017-03-21T09:44:22Z</time>
      </trkpt>
      <trkpt lat="42.81328" lon="-0.26354">
        <ele>2222.2</ele>
        <time>2017-03-21T09:44:30Z</time>
      </trkpt>
      <trkpt lat="42.81334" lon="-0.26376">
        <ele>2215.5</ele>
        <time>2017-03-21T09:44:33Z</time>
      </trkpt>
      <trkpt lat="42.81341" lon="-0.26385">
        <ele>2210.2</ele>
        <time>2017-03-21T09:44:36Z</time>
      </trkpt>
      <trkpt lat="42.81342" lon="-0.26385">
        <ele>2209.7</ele>
        <time>2017-03-21T09:44:37Z</time>
      </trkpt>
      <trkpt lat="42.81379" lon="-0.26443">
        <ele>2197.7</ele>
        <time>2017-03-21T09:44:52Z</time>
      </trkpt>
      <trkpt lat="42.81376" lon="-0.26438">
        <ele>2198.7</ele>
        <time>2017-03-21T09:45:09Z</time>
      </trkpt>
      <trkpt lat="42.81375" lon="-0.26437">
        <ele>2198.2</ele>
        <time>2017-03-21T09:45:36Z</time>
      </trkpt>
      <trkpt lat="42.81376" lon="-0.26437">
        <ele>2199.2</ele>
        <time>2017-03-21T09:46:05Z</time>
      </trkpt>
      <trkpt lat="42.81381" lon="-0.26507">
        <ele>2195.3</ele>
        <time>2017-03-21T09:46:26Z</time>
      </trkpt>
      <trkpt lat="42.81389" lon="-0.26546">
        <ele>2194.4</ele>
        <time>2017-03-21T09:46:52Z</time>
      </trkpt>
      <trkpt lat="42.8139" lon="-0.26546">
        <ele>2194.8</ele>
        <time>2017-03-21T09:47:18Z</time>
      </trkpt>
      <trkpt lat="42.81389" lon="-0.26543">
        <ele>2194.4</ele>
        <time>2017-03-21T09:47:46Z</time>
      </trkpt>
      <trkpt lat="42.81393" lon="-0.2654">
        <ele>2193.9</ele>
        <time>2017-03-21T09:48:37Z</time>
      </trkpt>
      <trkpt lat="42.81391" lon="-0.26542">
        <ele>2195.3</ele>
        <time>2017-03-21T09:49:00Z</time>
      </trkpt>
      <trkpt lat="42.81391" lon="-0.26543">
        <ele>2194.8</ele>
        <time>2017-03-21T09:49:23Z</time>
      </trkpt>
      <trkpt lat="42.8141" lon="-0.2684">
        <ele>2158.8</ele>
        <time>2017-03-21T09:50:24Z</time>
      </trkpt>
      <trkpt lat="42.8158" lon="-0.27373">
        <ele>2154.9</ele>
        <time>2017-03-21T09:53:23Z</time>
      </trkpt>
      <trkpt lat="42.81581" lon="-0.27372">
        <ele>2154</ele>
        <time>2017-03-21T09:53:45Z</time>
      </trkpt>
      <trkpt lat="42.81584" lon="-0.27372">
        <ele>2154.5</ele>
        <time>2017-03-21T09:54:01Z</time>
      </trkpt>
      <trkpt lat="42.81583" lon="-0.27374">
        <ele>2155.4</ele>
        <time>2017-03-21T09:54:18Z</time>
      </trkpt>
      <trkpt lat="42.81584" lon="-0.27374">
        <ele>2154</ele>
        <time>2017-03-21T09:54:36Z</time>
      </trkpt>
      <trkpt lat="42.81581" lon="-0.27373">
        <ele>2154</ele>
        <time>2017-03-21T09:55:08Z</time>
      </trkpt>
      <trkpt lat="42.81583" lon="-0.27375">
        <ele>2154</ele>
        <time>2017-03-21T09:55:41Z</time>
      </trkpt>
      <trkpt lat="42.81587" lon="-0.27373">
        <ele>2154.9</ele>
        <time>2017-03-21T09:55:54Z</time>
      </trkpt>
      <trkpt lat="42.81588" lon="-0.27375">
        <ele>2154.9</ele>
        <time>2017-03-21T09:56:28Z</time>
      </trkpt>
      <trkpt lat="42.81582" lon="-0.27372">
        <ele>2154.9</ele>
        <time>2017-03-21T09:57:04Z</time>
      </trkpt>
      <trkpt lat="42.81584" lon="-0.27372">
        <ele>2155.4</ele>
        <time>2017-03-21T09:57:39Z</time>
      </trkpt>
      <trkpt lat="42.81586" lon="-0.27371">
        <ele>2156.4</ele>
        <time>2017-03-21T09:58:16Z</time>
      </trkpt>
      <trkpt lat="42.81583" lon="-0.27372">
        <ele>2156.9</ele>
        <time>2017-03-21T09:58:46Z</time>
      </trkpt>
      <trkpt lat="42.81583" lon="-0.27373">
        <ele>2156.4</ele>
        <time>2017-03-21T09:59:24Z</time>
      </trkpt>
      <trkpt lat="42.81586" lon="-0.27373">
        <ele>2160.2</ele>
        <time>2017-03-21T09:59:52Z</time>
      </trkpt>
      <trkpt lat="42.81585" lon="-0.27372">
        <ele>2156.4</ele>
        <time>2017-03-21T09:59:56Z</time>
      </trkpt>
      <trkpt lat="42.81584" lon="-0.27373">
        <ele>2157.3</ele>
        <time>2017-03-21T10:00:25Z</time>
      </trkpt>
      <trkpt lat="42.81589" lon="-0.27376">
        <ele>2157.8</ele>
        <time>2017-03-21T10:00:58Z</time>
      </trkpt>
      <trkpt lat="42.81588" lon="-0.27376">
        <ele>2157.8</ele>
        <time>2017-03-21T10:01:29Z</time>
      </trkpt>
      <trkpt lat="42.81592" lon="-0.27378">
        <ele>2157.3</ele>
        <time>2017-03-21T10:01:56Z</time>
      </trkpt>
      <trkpt lat="42.81586" lon="-0.27374">
        <ele>2157.8</ele>
        <time>2017-03-21T10:02:34Z</time>
      </trkpt>
      <trkpt lat="42.81588" lon="-0.27374">
        <ele>2158.3</ele>
        <time>2017-03-21T10:03:04Z</time>
      </trkpt>
      <trkpt lat="42.81586" lon="-0.27376">
        <ele>2158.8</ele>
        <time>2017-03-21T10:03:33Z</time>
      </trkpt>
      <trkpt lat="42.81591" lon="-0.27379">
        <ele>2158.3</ele>
        <time>2017-03-21T10:04:03Z</time>
      </trkpt>
      <trkpt lat="42.81593" lon="-0.27375">
        <ele>2159.3</ele>
        <time>2017-03-21T10:04:33Z</time>
      </trkpt>
      <trkpt lat="42.81593" lon="-0.27378">
        <ele>2160.7</ele>
        <time>2017-03-21T10:05:01Z</time>
      </trkpt>
      <trkpt lat="42.81589" lon="-0.27374">
        <ele>2161.7</ele>
        <time>2017-03-21T10:05:06Z</time>
      </trkpt>
      <trkpt lat="42.8159" lon="-0.27371">
        <ele>2160.2</ele>
        <time>2017-03-21T10:05:30Z</time>
      </trkpt>
      <trkpt lat="42.8159" lon="-0.27371">
        <ele>2161.2</ele>
        <time>2017-03-21T10:05:50Z</time>
      </trkpt>
      <trkpt lat="42.81589" lon="-0.2737">
        <ele>2159.7</ele>
        <time>2017-03-21T10:05:52Z</time>
      </trkpt>
      <trkpt lat="42.81591" lon="-0.27378">
        <ele>2160.2</ele>
        <time>2017-03-21T10:06:31Z</time>
      </trkpt>
      <trkpt lat="42.81579" lon="-0.2737">
        <ele>2159.7</ele>
        <time>2017-03-21T10:06:54Z</time>
      </trkpt>
      <trkpt lat="42.81578" lon="-0.27369">
        <ele>2160.2</ele>
        <time>2017-03-21T10:07:10Z</time>
      </trkpt>
      <trkpt lat="42.81581" lon="-0.27369">
        <ele>2159.7</ele>
        <time>2017-03-21T10:07:32Z</time>
      </trkpt>
      <trkpt lat="42.81581" lon="-0.27372">
        <ele>2159.7</ele>
        <time>2017-03-21T10:07:55Z</time>
      </trkpt>
      <trkpt lat="42.81576" lon="-0.2737">
        <ele>2159.7</ele>
        <time>2017-03-21T10:08:13Z</time>
      </trkpt>
      <trkpt lat="42.81576" lon="-0.27369">
        <ele>2159.7</ele>
        <time>2017-03-21T10:08:21Z</time>
      </trkpt>
      <trkpt lat="42.81579" lon="-0.27374">
        <ele>2158.8</ele>
        <time>2017-03-21T10:08:37Z</time>
      </trkpt>
      <trkpt lat="42.81584" lon="-0.2737">
        <ele>2159.3</ele>
        <time>2017-03-21T10:08:58Z</time>
      </trkpt>
      <trkpt lat="42.81596" lon="-0.27388">
        <ele>2163.6</ele>
        <time>2017-03-21T10:10:01Z</time>
      </trkpt>
      <trkpt lat="42.81596" lon="-0.27391">
        <ele>2164.6</ele>
        <time>2017-03-21T10:10:18Z</time>
      </trkpt>
      <trkpt lat="42.81614" lon="-0.27505">
        <ele>2188.1</ele>
        <time>2017-03-21T10:13:20Z</time>
      </trkpt>
      <trkpt lat="42.81618" lon="-0.2751">
        <ele>2190.5</ele>
        <time>2017-03-21T10:13:34Z</time>
      </trkpt>
      <trkpt lat="42.81625" lon="-0.27512">
        <ele>2191.9</ele>
        <time>2017-03-21T10:13:47Z</time>
      </trkpt>
      <trkpt lat="42.81634" lon="-0.27511">
        <ele>2194.4</ele>
        <time>2017-03-21T10:14:03Z</time>
      </trkpt>
      <trkpt lat="42.81645" lon="-0.27515">
        <ele>2198.2</ele>
        <time>2017-03-21T10:14:31Z</time>
      </trkpt>
      <trkpt lat="42.81655" lon="-0.27514">
        <ele>2202</ele>
        <time>2017-03-21T10:15:00Z</time>
      </trkpt>
      <trkpt lat="42.81657" lon="-0.27513">
        <ele>2202</ele>
        <time>2017-03-21T10:15:16Z</time>
      </trkpt>
      <trkpt lat="42.81656" lon="-0.27524">
        <ele>2204.4</ele>
        <time>2017-03-21T10:15:37Z</time>
      </trkpt>
      <trkpt lat="42.8165" lon="-0.27538">
        <ele>2210.2</ele>
        <time>2017-03-21T10:16:06Z</time>
      </trkpt>
      <trkpt lat="42.81648" lon="-0.27537">
        <ele>2209.7</ele>
        <time>2017-03-21T10:16:13Z</time>
      </trkpt>
      <trkpt lat="42.81652" lon="-0.27534">
        <ele>2210.7</ele>
        <time>2017-03-21T10:16:27Z</time>
      </trkpt>
      <trkpt lat="42.81659" lon="-0.27534">
        <ele>2212.1</ele>
        <time>2017-03-21T10:16:45Z</time>
      </trkpt>
      <trkpt lat="42.81662" lon="-0.27533">
        <ele>2211.7</ele>
        <time>2017-03-21T10:17:00Z</time>
      </trkpt>
      <trkpt lat="42.81661" lon="-0.27544">
        <ele>2216.9</ele>
        <time>2017-03-21T10:17:26Z</time>
      </trkpt>
      <trkpt lat="42.81658" lon="-0.27547">
        <ele>2217.4</ele>
        <time>2017-03-21T10:17:45Z</time>
      </trkpt>
      <trkpt lat="42.81662" lon="-0.2755">
        <ele>2218.9</ele>
        <time>2017-03-21T10:18:01Z</time>
      </trkpt>
      <trkpt lat="42.81667" lon="-0.27551">
        <ele>2219.8</ele>
        <time>2017-03-21T10:18:16Z</time>
      </trkpt>
      <trkpt lat="42.81679" lon="-0.27577">
        <ele>2227.5</ele>
        <time>2017-03-21T10:19:24Z</time>
      </trkpt>
      <trkpt lat="42.81679" lon="-0.27584">
        <ele>2230.4</ele>
        <time>2017-03-21T10:19:39Z</time>
      </trkpt>
      <trkpt lat="42.81684" lon="-0.27591">
        <ele>2231.8</ele>
        <time>2017-03-21T10:19:55Z</time>
      </trkpt>
      <trkpt lat="42.81683" lon="-0.27595">
        <ele>2231.4</ele>
        <time>2017-03-21T10:20:12Z</time>
      </trkpt>
      <trkpt lat="42.81689" lon="-0.27603">
        <ele>2236.2</ele>
        <time>2017-03-21T10:20:49Z</time>
      </trkpt>
      <trkpt lat="42.8169" lon="-0.27603">
        <ele>2232.8</ele>
        <time>2017-03-21T10:21:00Z</time>
      </trkpt>
      <trkpt lat="42.81689" lon="-0.27603">
        <ele>2233.3</ele>
        <time>2017-03-21T10:21:01Z</time>
      </trkpt>
      <trkpt lat="42.81689" lon="-0.27607">
        <ele>2235.7</ele>
        <time>2017-03-21T10:21:14Z</time>
      </trkpt>
      <trkpt lat="42.81732" lon="-0.27774">
        <ele>2240.5</ele>
        <time>2017-03-21T10:24:02Z</time>
      </trkpt>
      <trkpt lat="42.81736" lon="-0.28133">
        <ele>2218.4</ele>
        <time>2017-03-21T10:27:54Z</time>
      </trkpt>
      <trkpt lat="42.81723" lon="-0.28539">
        <ele>2204.4</ele>
        <time>2017-03-21T10:33:07Z</time>
      </trkpt>
      <trkpt lat="42.81725" lon="-0.2854">
        <ele>2205.4</ele>
        <time>2017-03-21T10:33:37Z</time>
      </trkpt>
      <trkpt lat="42.81725" lon="-0.28582">
        <ele>2200.1</ele>
        <time>2017-03-21T10:34:53Z</time>
      </trkpt>
      <trkpt lat="42.8172" lon="-0.28582">
        <ele>2200.1</ele>
        <time>2017-03-21T10:35:17Z</time>
      </trkpt>
      <trkpt lat="42.8172" lon="-0.28583">
        <ele>2200.6</ele>
        <time>2017-03-21T10:35:18Z</time>
      </trkpt>
      <trkpt lat="42.81719" lon="-0.28586">
        <ele>2197.7</ele>
        <time>2017-03-21T10:35:39Z</time>
      </trkpt>
      <trkpt lat="42.81719" lon="-0.28579">
        <ele>2197.2</ele>
        <time>2017-03-21T10:35:53Z</time>
      </trkpt>
      <trkpt lat="42.81721" lon="-0.2858">
        <ele>2198.2</ele>
        <time>2017-03-21T10:36:18Z</time>
      </trkpt>
      <trkpt lat="42.81764" lon="-0.28725">
        <ele>2168.9</ele>
        <time>2017-03-21T10:37:08Z</time>
      </trkpt>
      <trkpt lat="42.81758" lon="-0.28732">
        <ele>2167</ele>
        <time>2017-03-21T10:37:12Z</time>
      </trkpt>
      <trkpt lat="42.81702" lon="-0.28737">
        <ele>2156.9</ele>
        <time>2017-03-21T10:37:37Z</time>
      </trkpt>
      <trkpt lat="42.81691" lon="-0.28753">
        <ele>2154.5</ele>
        <time>2017-03-21T10:37:54Z</time>
      </trkpt>
      <trkpt lat="42.81686" lon="-0.28779">
        <ele>2154.5</ele>
        <time>2017-03-21T10:38:27Z</time>
      </trkpt>
      <trkpt lat="42.81684" lon="-0.28778">
        <ele>2155.9</ele>
        <time>2017-03-21T10:38:45Z</time>
      </trkpt>
      <trkpt lat="42.81688" lon="-0.28779">
        <ele>2154.9</ele>
        <time>2017-03-21T10:39:01Z</time>
      </trkpt>
      <trkpt lat="42.81687" lon="-0.28778">
        <ele>2154.9</ele>
        <time>2017-03-21T10:39:16Z</time>
      </trkpt>
      <trkpt lat="42.81685" lon="-0.28779">
        <ele>2154.9</ele>
        <time>2017-03-21T10:39:26Z</time>
      </trkpt>
      <trkpt lat="42.81683" lon="-0.28779">
        <ele>2156.4</ele>
        <time>2017-03-21T10:39:49Z</time>
      </trkpt>
      <trkpt lat="42.81684" lon="-0.2877">
        <ele>2156.4</ele>
        <time>2017-03-21T10:40:07Z</time>
      </trkpt>
      <trkpt lat="42.81688" lon="-0.28764">
        <ele>2155.4</ele>
        <time>2017-03-21T10:40:50Z</time>
      </trkpt>
      <trkpt lat="42.81686" lon="-0.2877">
        <ele>2154</ele>
        <time>2017-03-21T10:41:34Z</time>
      </trkpt>
      <trkpt lat="42.8168" lon="-0.28766">
        <ele>2154.5</ele>
        <time>2017-03-21T10:42:17Z</time>
      </trkpt>
      <trkpt lat="42.81683" lon="-0.28769">
        <ele>2154.9</ele>
        <time>2017-03-21T10:42:47Z</time>
      </trkpt>
      <trkpt lat="42.81683" lon="-0.28771">
        <ele>2154.5</ele>
        <time>2017-03-21T10:43:16Z</time>
      </trkpt>
      <trkpt lat="42.81684" lon="-0.28771">
        <ele>2154.9</ele>
        <time>2017-03-21T10:43:53Z</time>
      </trkpt>
      <trkpt lat="42.81682" lon="-0.28774">
        <ele>2154</ele>
        <time>2017-03-21T10:44:27Z</time>
      </trkpt>
    </trkseg>
  </trk>
</gpx>